sensor_id;sensor_type;location;lat;lon;timestamp;P1;durP1;ratioP1;P2;durP2;ratioP2
5549;SDS011;2798;42.716;23.256;2023-04-06T00:02:00;4.90;;;4.40;;
5549;SDS011;2798;42.716;23.256;2023-04-06T00:04:25;6.20;;;5.00;;
5549;SDS011;2798;42.716;23.256;2023-04-06T00:06:51;5.00;;;4.50;;
5549;SDS011;2798;42.716;23.256;2023-04-06T00:09:17;6.20;;;4.93;;
5549;SDS011;2798;42.716;23.256;2023-04-06T00:11:42;6.17;;;5.03;;
5549;SDS011;2798;42.716;23.256;2023-04-06T00:14:07;6.03;;;4.97;;
5549;SDS011;2798;42.716;23.256;2023-04-06T00:16:33;5.83;;;4.70;;
5549;SDS011;2798;42.716;23.256;2023-04-06T00:18:58;5.20;;;4.70;;
5549;SDS011;2798;42.716;23.256;2023-04-06T00:21:23;5.47;;;4.30;;
5549;SDS011;2798;42.716;23.256;2023-04-06T00:23:48;5.47;;;4.73;;
5549;SDS011;2798;42.716;23.256;2023-04-06T00:26:14;5.20;;;4.50;;
5549;SDS011;2798;42.716;23.256;2023-04-06T00:28:39;6.37;;;5.20;;
5549;SDS011;2798;42.716;23.256;2023-04-06T00:31:05;8.77;;;4.53;;
5549;SDS011;2798;42.716;23.256;2023-04-06T00:33:30;5.40;;;4.90;;
5549;SDS011;2798;42.716;23.256;2023-04-06T00:35:55;4.90;;;4.40;;
5549;SDS011;2798;42.716;23.256;2023-04-06T00:38:21;5.30;;;4.57;;
5549;SDS011;2798;42.716;23.256;2023-04-06T00:40:46;5.33;;;4.23;;
5549;SDS011;2798;42.716;23.256;2023-04-06T00:43:12;6.27;;;5.13;;
5549;SDS011;2798;42.716;23.256;2023-04-06T00:45:38;4.40;;;4.00;;
5549;SDS011;2798;42.716;23.256;2023-04-06T00:48:03;4.73;;;4.23;;
5549;SDS011;2798;42.716;23.256;2023-04-06T00:50:29;5.17;;;4.67;;
5549;SDS011;2798;42.716;23.256;2023-04-06T00:52:54;4.60;;;4.20;;
5549;SDS011;2798;42.716;23.256;2023-04-06T00:55:20;5.90;;;5.07;;
5549;SDS011;2798;42.716;23.256;2023-04-06T00:57:45;5.33;;;4.47;;
5549;SDS011;2798;42.716;23.256;2023-04-06T01:00:11;5.23;;;4.73;;
5549;SDS011;2798;42.716;23.256;2023-04-06T01:02:37;5.60;;;4.73;;
5549;SDS011;2798;42.716;23.256;2023-04-06T01:05:02;5.37;;;4.73;;
5549;SDS011;2798;42.716;23.256;2023-04-06T01:07:27;5.30;;;4.77;;
5549;SDS011;2798;42.716;23.256;2023-04-06T01:09:55;6.20;;;4.77;;
5549;SDS011;2798;42.716;23.256;2023-04-06T01:12:21;5.17;;;4.60;;
5549;SDS011;2798;42.716;23.256;2023-04-06T01:14:46;5.57;;;4.97;;
5549;SDS011;2798;42.716;23.256;2023-04-06T01:17:11;6.60;;;5.20;;
5549;SDS011;2798;42.716;23.256;2023-04-06T01:19:36;5.87;;;4.80;;
5549;SDS011;2798;42.716;23.256;2023-04-06T01:22:02;5.93;;;5.20;;
5549;SDS011;2798;42.716;23.256;2023-04-06T01:24:27;6.00;;;4.83;;
5549;SDS011;2798;42.716;23.256;2023-04-06T01:26:52;6.17;;;5.33;;
5549;SDS011;2798;42.716;23.256;2023-04-06T01:29:18;7.67;;;5.37;;
5549;SDS011;2798;42.716;23.256;2023-04-06T01:31:43;7.17;;;5.33;;
5549;SDS011;2798;42.716;23.256;2023-04-06T01:34:08;6.53;;;5.10;;
5549;SDS011;2798;42.716;23.256;2023-04-06T01:36:33;7.57;;;5.30;;
5549;SDS011;2798;42.716;23.256;2023-04-06T01:38:59;6.00;;;5.27;;
5549;SDS011;2798;42.716;23.256;2023-04-06T01:41:25;6.70;;;5.40;;
5549;SDS011;2798;42.716;23.256;2023-04-06T01:43:51;8.53;;;5.73;;
5549;SDS011;2798;42.716;23.256;2023-04-06T01:46:19;7.40;;;6.33;;
5549;SDS011;2798;42.716;23.256;2023-04-06T01:48:44;7.30;;;5.30;;
5549;SDS011;2798;42.716;23.256;2023-04-06T01:51:10;6.10;;;5.03;;
5549;SDS011;2798;42.716;23.256;2023-04-06T01:53:35;9.37;;;5.90;;
5549;SDS011;2798;42.716;23.256;2023-04-06T01:56:00;6.77;;;5.87;;
5549;SDS011;2798;42.716;23.256;2023-04-06T01:58:26;6.03;;;5.40;;
5549;SDS011;2798;42.716;23.256;2023-04-06T02:00:51;6.07;;;5.20;;
5549;SDS011;2798;42.716;23.256;2023-04-06T02:03:16;8.00;;;5.60;;
5549;SDS011;2798;42.716;23.256;2023-04-06T02:05:42;5.60;;;5.03;;
5549;SDS011;2798;42.716;23.256;2023-04-06T02:08:07;5.80;;;4.70;;
5549;SDS011;2798;42.716;23.256;2023-04-06T02:10:33;8.00;;;5.40;;
5549;SDS011;2798;42.716;23.256;2023-04-06T02:12:59;7.10;;;5.43;;
5549;SDS011;2798;42.716;23.256;2023-04-06T02:15:24;7.77;;;5.77;;
5549;SDS011;2798;42.716;23.256;2023-04-06T02:17:50;6.87;;;5.67;;
5549;SDS011;2798;42.716;23.256;2023-04-06T02:20:15;6.70;;;5.60;;
5549;SDS011;2798;42.716;23.256;2023-04-06T02:22:41;8.00;;;6.20;;
5549;SDS011;2798;42.716;23.256;2023-04-06T02:25:06;7.27;;;6.17;;
5549;SDS011;2798;42.716;23.256;2023-04-06T02:27:32;7.10;;;5.60;;
5549;SDS011;2798;42.716;23.256;2023-04-06T02:29:57;6.30;;;5.70;;
5549;SDS011;2798;42.716;23.256;2023-04-06T02:32:23;8.50;;;5.40;;
5549;SDS011;2798;42.716;23.256;2023-04-06T02:34:48;6.17;;;5.03;;
5549;SDS011;2798;42.716;23.256;2023-04-06T02:37:14;7.50;;;5.70;;
5549;SDS011;2798;42.716;23.256;2023-04-06T02:39:39;6.57;;;5.87;;
5549;SDS011;2798;42.716;23.256;2023-04-06T02:42:05;6.73;;;5.67;;
5549;SDS011;2798;42.716;23.256;2023-04-06T02:44:30;7.50;;;5.70;;
5549;SDS011;2798;42.716;23.256;2023-04-06T02:46:55;7.47;;;5.70;;
5549;SDS011;2798;42.716;23.256;2023-04-06T02:49:21;7.10;;;5.80;;
5549;SDS011;2798;42.716;23.256;2023-04-06T02:51:47;5.90;;;5.30;;
5549;SDS011;2798;42.716;23.256;2023-04-06T02:54:12;6.07;;;5.47;;
5549;SDS011;2798;42.716;23.256;2023-04-06T02:56:37;7.70;;;5.60;;
5549;SDS011;2798;42.716;23.256;2023-04-06T02:59:03;9.10;;;6.20;;
5549;SDS011;2798;42.716;23.256;2023-04-06T03:01:28;9.00;;;5.67;;
5549;SDS011;2798;42.716;23.256;2023-04-06T03:03:53;7.30;;;5.60;;
5549;SDS011;2798;42.716;23.256;2023-04-06T03:06:19;5.87;;;4.43;;
5549;SDS011;2798;42.716;23.256;2023-04-06T03:08:44;8.93;;;5.10;;
5549;SDS011;2798;42.716;23.256;2023-04-06T03:11:10;8.07;;;5.10;;
5549;SDS011;2798;42.716;23.256;2023-04-06T03:13:36;6.60;;;5.40;;
5549;SDS011;2798;42.716;23.256;2023-04-06T03:16:01;7.70;;;5.40;;
5549;SDS011;2798;42.716;23.256;2023-04-06T03:18:26;4.90;;;4.40;;
5549;SDS011;2798;42.716;23.256;2023-04-06T03:20:52;7.67;;;4.80;;
5549;SDS011;2798;42.716;23.256;2023-04-06T03:23:20;6.20;;;5.17;;
5549;SDS011;2798;42.716;23.256;2023-04-06T03:25:46;5.57;;;4.80;;
5549;SDS011;2798;42.716;23.256;2023-04-06T03:28:11;5.10;;;4.60;;
5549;SDS011;2798;42.716;23.256;2023-04-06T03:30:36;8.10;;;4.57;;
5549;SDS011;2798;42.716;23.256;2023-04-06T03:33:02;6.13;;;5.00;;
5549;SDS011;2798;42.716;23.256;2023-04-06T03:35:27;6.20;;;5.00;;
5549;SDS011;2798;42.716;23.256;2023-04-06T03:37:52;6.83;;;5.17;;
5549;SDS011;2798;42.716;23.256;2023-04-06T03:40:18;6.63;;;5.60;;
5549;SDS011;2798;42.716;23.256;2023-04-06T03:42:43;7.43;;;5.47;;
5549;SDS011;2798;42.716;23.256;2023-04-06T03:45:08;7.10;;;5.50;;
5549;SDS011;2798;42.716;23.256;2023-04-06T03:47:34;8.07;;;6.40;;
5549;SDS011;2798;42.716;23.256;2023-04-06T03:49:59;8.60;;;5.90;;
5549;SDS011;2798;42.716;23.256;2023-04-06T03:52:25;7.10;;;5.87;;
5549;SDS011;2798;42.716;23.256;2023-04-06T03:54:51;8.27;;;6.50;;
5549;SDS011;2798;42.716;23.256;2023-04-06T03:57:16;8.40;;;6.10;;
5549;SDS011;2798;42.716;23.256;2023-04-06T03:59:42;7.53;;;6.63;;
5549;SDS011;2798;42.716;23.256;2023-04-06T04:02:07;9.13;;;6.83;;
5549;SDS011;2798;42.716;23.256;2023-04-06T04:04:32;7.63;;;6.30;;
5549;SDS011;2798;42.716;23.256;2023-04-06T04:06:58;8.63;;;7.30;;
5549;SDS011;2798;42.716;23.256;2023-04-06T04:09:23;12.73;;;7.90;;
5549;SDS011;2798;42.716;23.256;2023-04-06T04:11:48;8.53;;;6.80;;
5549;SDS011;2798;42.716;23.256;2023-04-06T04:14:14;9.00;;;6.43;;
5549;SDS011;2798;42.716;23.256;2023-04-06T04:16:39;7.73;;;6.47;;
5549;SDS011;2798;42.716;23.256;2023-04-06T04:19:06;8.63;;;6.63;;
5549;SDS011;2798;42.716;23.256;2023-04-06T04:21:31;8.30;;;6.23;;
5549;SDS011;2798;42.716;23.256;2023-04-06T04:23:56;8.93;;;7.50;;
5549;SDS011;2798;42.716;23.256;2023-04-06T04:26:22;11.37;;;7.67;;
5549;SDS011;2798;42.716;23.256;2023-04-06T04:28:47;6.90;;;5.90;;
5549;SDS011;2798;42.716;23.256;2023-04-06T04:31:12;7.80;;;6.10;;
5549;SDS011;2798;42.716;23.256;2023-04-06T04:33:38;8.40;;;6.10;;
5549;SDS011;2798;42.716;23.256;2023-04-06T04:36:03;9.63;;;7.17;;
5549;SDS011;2798;42.716;23.256;2023-04-06T04:38:28;9.43;;;6.73;;
5549;SDS011;2798;42.716;23.256;2023-04-06T04:40:54;7.63;;;6.10;;
5549;SDS011;2798;42.716;23.256;2023-04-06T04:43:20;8.73;;;5.97;;
5549;SDS011;2798;42.716;23.256;2023-04-06T04:45:45;7.97;;;6.13;;
5549;SDS011;2798;42.716;23.256;2023-04-06T04:48:10;11.60;;;6.23;;
5549;SDS011;2798;42.716;23.256;2023-04-06T04:50:35;8.17;;;6.03;;
5549;SDS011;2798;42.716;23.256;2023-04-06T04:53:01;7.67;;;6.20;;
5549;SDS011;2798;42.716;23.256;2023-04-06T04:55:27;7.70;;;5.80;;
5549;SDS011;2798;42.716;23.256;2023-04-06T04:57:52;8.40;;;6.23;;
5549;SDS011;2798;42.716;23.256;2023-04-06T05:00:18;7.40;;;5.43;;
5549;SDS011;2798;42.716;23.256;2023-04-06T05:02:43;6.50;;;5.67;;
5549;SDS011;2798;42.716;23.256;2023-04-06T05:05:09;8.13;;;5.97;;
5549;SDS011;2798;42.716;23.256;2023-04-06T05:07:34;9.50;;;5.83;;
5549;SDS011;2798;42.716;23.256;2023-04-06T05:09:59;9.30;;;6.10;;
5549;SDS011;2798;42.716;23.256;2023-04-06T05:12:25;8.00;;;6.10;;
5549;SDS011;2798;42.716;23.256;2023-04-06T05:14:52;8.70;;;5.97;;
5549;SDS011;2798;42.716;23.256;2023-04-06T05:17:18;8.97;;;5.97;;
5549;SDS011;2798;42.716;23.256;2023-04-06T05:19:43;6.70;;;5.57;;
5549;SDS011;2798;42.716;23.256;2023-04-06T05:22:08;8.00;;;6.13;;
5549;SDS011;2798;42.716;23.256;2023-04-06T05:24:33;6.87;;;5.90;;
5549;SDS011;2798;42.716;23.256;2023-04-06T05:27:00;7.23;;;6.20;;
5549;SDS011;2798;42.716;23.256;2023-04-06T05:29:25;8.20;;;6.07;;
5549;SDS011;2798;42.716;23.256;2023-04-06T05:31:51;6.40;;;5.53;;
5549;SDS011;2798;42.716;23.256;2023-04-06T05:34:16;9.10;;;6.20;;
5549;SDS011;2798;42.716;23.256;2023-04-06T05:36:41;8.13;;;6.50;;
5549;SDS011;2798;42.716;23.256;2023-04-06T05:39:07;10.23;;;7.17;;
5549;SDS011;2798;42.716;23.256;2023-04-06T05:41:32;7.57;;;5.90;;
5549;SDS011;2798;42.716;23.256;2023-04-06T05:43:57;8.90;;;6.77;;
5549;SDS011;2798;42.716;23.256;2023-04-06T05:46:23;9.20;;;6.10;;
5549;SDS011;2798;42.716;23.256;2023-04-06T05:48:48;10.13;;;6.63;;
5549;SDS011;2798;42.716;23.256;2023-04-06T05:51:13;14.13;;;6.40;;
5549;SDS011;2798;42.716;23.256;2023-04-06T05:53:38;9.47;;;6.57;;
5549;SDS011;2798;42.716;23.256;2023-04-06T05:56:04;12.00;;;7.60;;
5549;SDS011;2798;42.716;23.256;2023-04-06T05:58:29;8.23;;;6.23;;
5549;SDS011;2798;42.716;23.256;2023-04-06T06:00:58;8.57;;;6.70;;
5549;SDS011;2798;42.716;23.256;2023-04-06T06:03:24;10.77;;;7.43;;
5549;SDS011;2798;42.716;23.256;2023-04-06T06:05:49;9.60;;;7.80;;
5549;SDS011;2798;42.716;23.256;2023-04-06T06:08:14;7.80;;;6.27;;
5549;SDS011;2798;42.716;23.256;2023-04-06T06:10:39;9.30;;;7.27;;
5549;SDS011;2798;42.716;23.256;2023-04-06T06:13:05;8.33;;;6.50;;
5549;SDS011;2798;42.716;23.256;2023-04-06T06:15:30;7.13;;;6.03;;
5549;SDS011;2798;42.716;23.256;2023-04-06T06:17:56;9.50;;;7.17;;
5549;SDS011;2798;42.716;23.256;2023-04-06T06:20:21;8.50;;;7.07;;
5549;SDS011;2798;42.716;23.256;2023-04-06T06:22:46;8.80;;;7.33;;
5549;SDS011;2798;42.716;23.256;2023-04-06T06:25:12;9.13;;;7.17;;
5549;SDS011;2798;42.716;23.256;2023-04-06T06:27:37;8.70;;;6.70;;
5549;SDS011;2798;42.716;23.256;2023-04-06T06:30:02;9.70;;;6.83;;
5549;SDS011;2798;42.716;23.256;2023-04-06T06:32:28;9.83;;;7.33;;
5549;SDS011;2798;42.716;23.256;2023-04-06T06:34:53;9.57;;;7.30;;
5549;SDS011;2798;42.716;23.256;2023-04-06T06:37:18;8.30;;;6.60;;
5549;SDS011;2798;42.716;23.256;2023-04-06T06:39:44;12.63;;;6.90;;
5549;SDS011;2798;42.716;23.256;2023-04-06T06:42:09;8.20;;;6.50;;
5549;SDS011;2798;42.716;23.256;2023-04-06T06:44:34;7.53;;;6.60;;
5549;SDS011;2798;42.716;23.256;2023-04-06T06:47:00;8.50;;;7.03;;
5549;SDS011;2798;42.716;23.256;2023-04-06T06:49:25;8.93;;;7.50;;
5549;SDS011;2798;42.716;23.256;2023-04-06T06:51:50;9.47;;;7.00;;
5549;SDS011;2798;42.716;23.256;2023-04-06T06:54:16;8.17;;;6.17;;
5549;SDS011;2798;42.716;23.256;2023-04-06T06:56:41;8.80;;;7.03;;
5549;SDS011;2798;42.716;23.256;2023-04-06T06:59:06;9.10;;;6.73;;
5549;SDS011;2798;42.716;23.256;2023-04-06T07:01:32;9.90;;;6.83;;
5549;SDS011;2798;42.716;23.256;2023-04-06T07:03:57;12.30;;;6.97;;
5549;SDS011;2798;42.716;23.256;2023-04-06T07:06:23;10.63;;;6.73;;
5549;SDS011;2798;42.716;23.256;2023-04-06T07:08:48;8.73;;;7.03;;
5549;SDS011;2798;42.716;23.256;2023-04-06T07:11:13;8.57;;;7.23;;
5549;SDS011;2798;42.716;23.256;2023-04-06T07:13:38;9.93;;;7.00;;
5549;SDS011;2798;42.716;23.256;2023-04-06T07:16:04;9.53;;;6.73;;
5549;SDS011;2798;42.716;23.256;2023-04-06T07:18:48;8.47;;;6.73;;
5549;SDS011;2798;42.716;23.256;2023-04-06T07:21:13;8.63;;;6.40;;
5549;SDS011;2798;42.716;23.256;2023-04-06T07:23:38;6.93;;;6.00;;
5549;SDS011;2798;42.716;23.256;2023-04-06T07:26:04;9.97;;;6.90;;
5549;SDS011;2798;42.716;23.256;2023-04-06T07:28:29;7.93;;;6.67;;
5549;SDS011;2798;42.716;23.256;2023-04-06T07:30:55;10.13;;;7.00;;
5549;SDS011;2798;42.716;23.256;2023-04-06T07:33:20;8.47;;;7.00;;
5549;SDS011;2798;42.716;23.256;2023-04-06T07:35:45;11.63;;;7.43;;
5549;SDS011;2798;42.716;23.256;2023-04-06T07:38:11;9.07;;;6.87;;
5549;SDS011;2798;42.716;23.256;2023-04-06T07:40:36;8.23;;;6.90;;
5549;SDS011;2798;42.716;23.256;2023-04-06T07:43:02;9.13;;;6.57;;
5549;SDS011;2798;42.716;23.256;2023-04-06T07:45:27;9.13;;;7.37;;
5549;SDS011;2798;42.716;23.256;2023-04-06T07:47:52;9.83;;;6.77;;
5549;SDS011;2798;42.716;23.256;2023-04-06T07:50:18;10.00;;;7.70;;
5549;SDS011;2798;42.716;23.256;2023-04-06T07:52:43;11.60;;;7.93;;
5549;SDS011;2798;42.716;23.256;2023-04-06T07:55:08;10.93;;;7.33;;
5549;SDS011;2798;42.716;23.256;2023-04-06T07:57:34;8.73;;;7.10;;
5549;SDS011;2798;42.716;23.256;2023-04-06T07:59:59;9.87;;;7.40;;
5549;SDS011;2798;42.716;23.256;2023-04-06T08:02:25;9.87;;;7.20;;
5549;SDS011;2798;42.716;23.256;2023-04-06T08:04:50;9.77;;;7.13;;
5549;SDS011;2798;42.716;23.256;2023-04-06T08:07:16;8.83;;;6.50;;
5549;SDS011;2798;42.716;23.256;2023-04-06T08:09:42;8.20;;;6.70;;
5549;SDS011;2798;42.716;23.256;2023-04-06T08:12:07;8.50;;;6.80;;
5549;SDS011;2798;42.716;23.256;2023-04-06T08:14:32;7.50;;;6.30;;
5549;SDS011;2798;42.716;23.256;2023-04-06T08:16:58;8.67;;;6.30;;
5549;SDS011;2798;42.716;23.256;2023-04-06T08:19:23;9.00;;;6.53;;
5549;SDS011;2798;42.716;23.256;2023-04-06T08:21:48;7.43;;;6.00;;
5549;SDS011;2798;42.716;23.256;2023-04-06T08:24:14;7.33;;;6.13;;
5549;SDS011;2798;42.716;23.256;2023-04-06T08:26:39;7.07;;;6.30;;
5549;SDS011;2798;42.716;23.256;2023-04-06T08:29:05;10.73;;;6.90;;
5549;SDS011;2798;42.716;23.256;2023-04-06T08:31:32;6.90;;;6.00;;
5549;SDS011;2798;42.716;23.256;2023-04-06T08:33:58;7.47;;;6.13;;
5549;SDS011;2798;42.716;23.256;2023-04-06T08:36:23;8.00;;;6.03;;
5549;SDS011;2798;42.716;23.256;2023-04-06T08:38:49;6.60;;;5.60;;
5549;SDS011;2798;42.716;23.256;2023-04-06T08:41:14;8.00;;;6.20;;
5549;SDS011;2798;42.716;23.256;2023-04-06T08:43:42;7.00;;;5.67;;
5549;SDS011;2798;42.716;23.256;2023-04-06T08:46:08;9.90;;;6.63;;
5549;SDS011;2798;42.716;23.256;2023-04-06T08:48:33;8.03;;;6.60;;
5549;SDS011;2798;42.716;23.256;2023-04-06T08:50:59;7.23;;;6.07;;
5549;SDS011;2798;42.716;23.256;2023-04-06T08:53:25;6.47;;;5.80;;
5549;SDS011;2798;42.716;23.256;2023-04-06T08:55:51;6.30;;;5.70;;
5549;SDS011;2798;42.716;23.256;2023-04-06T08:58:16;7.90;;;6.63;;
5549;SDS011;2798;42.716;23.256;2023-04-06T09:00:41;9.43;;;7.30;;
5549;SDS011;2798;42.716;23.256;2023-04-06T09:03:07;6.93;;;6.23;;
5549;SDS011;2798;42.716;23.256;2023-04-06T09:05:33;8.53;;;6.70;;
5549;SDS011;2798;42.716;23.256;2023-04-06T09:07:58;7.10;;;6.40;;
5549;SDS011;2798;42.716;23.256;2023-04-06T09:10:23;9.00;;;6.37;;
5549;SDS011;2798;42.716;23.256;2023-04-06T09:12:50;6.93;;;6.20;;
5549;SDS011;2798;42.716;23.256;2023-04-06T09:15:20;8.00;;;7.20;;
5549;SDS011;2798;42.716;23.256;2023-04-06T09:17:45;7.97;;;6.37;;
5549;SDS011;2798;42.716;23.256;2023-04-06T09:20:11;8.40;;;6.30;;
5549;SDS011;2798;42.716;23.256;2023-04-06T09:22:37;7.60;;;6.30;;
5549;SDS011;2798;42.716;23.256;2023-04-06T09:25:02;6.77;;;6.07;;
5549;SDS011;2798;42.716;23.256;2023-04-06T09:27:35;11.47;;;6.47;;
5549;SDS011;2798;42.716;23.256;2023-04-06T09:32:29;8.20;;;6.33;;
5549;SDS011;2798;42.716;23.256;2023-04-06T09:34:54;9.17;;;7.13;;
5549;SDS011;2798;42.716;23.256;2023-04-06T09:37:30;6.93;;;6.23;;
5549;SDS011;2798;42.716;23.256;2023-04-06T09:40:01;10.30;;;6.77;;
5549;SDS011;2798;42.716;23.256;2023-04-06T09:42:26;9.50;;;6.30;;
5549;SDS011;2798;42.716;23.256;2023-04-06T09:44:52;9.10;;;6.43;;
5549;SDS011;2798;42.716;23.256;2023-04-06T09:47:17;7.30;;;6.40;;
5549;SDS011;2798;42.716;23.256;2023-04-06T09:49:43;7.17;;;6.47;;
5549;SDS011;2798;42.716;23.256;2023-04-06T09:52:08;13.43;;;6.43;;
5549;SDS011;2798;42.716;23.256;2023-04-06T09:54:36;7.20;;;5.83;;
5549;SDS011;2798;42.716;23.256;2023-04-06T09:57:07;10.03;;;6.60;;
5549;SDS011;2798;42.716;23.256;2023-04-06T10:00:16;7.33;;;6.13;;
5549;SDS011;2798;42.716;23.256;2023-04-06T10:03:04;7.50;;;6.30;;
5549;SDS011;2798;42.716;23.256;2023-04-06T10:07:39;7.40;;;5.70;;
5549;SDS011;2798;42.716;23.256;2023-04-06T10:10:05;6.90;;;6.00;;
5549;SDS011;2798;42.716;23.256;2023-04-06T10:12:30;8.40;;;6.60;;
5549;SDS011;2798;42.716;23.256;2023-04-06T10:14:56;7.73;;;5.30;;
5549;SDS011;2798;42.716;23.256;2023-04-06T10:17:22;6.80;;;5.90;;
5549;SDS011;2798;42.716;23.256;2023-04-06T10:19:59;7.30;;;6.27;;
5549;SDS011;2798;42.716;23.256;2023-04-06T10:22:29;6.90;;;6.10;;
5549;SDS011;2798;42.716;23.256;2023-04-06T10:24:57;7.70;;;5.87;;
5549;SDS011;2798;42.716;23.256;2023-04-06T10:27:28;6.50;;;5.80;;
5549;SDS011;2798;42.716;23.256;2023-04-06T10:29:54;6.97;;;6.27;;
5549;SDS011;2798;42.716;23.256;2023-04-06T10:32:32;7.60;;;6.03;;
5549;SDS011;2798;42.716;23.256;2023-04-06T10:35:04;7.47;;;5.83;;
5549;SDS011;2798;42.716;23.256;2023-04-06T10:37:45;8.83;;;6.90;;
5549;SDS011;2798;42.716;23.256;2023-04-06T10:40:17;6.83;;;5.90;;
5549;SDS011;2798;42.716;23.256;2023-04-06T10:42:43;6.70;;;5.73;;
5549;SDS011;2798;42.716;23.256;2023-04-06T10:45:18;7.77;;;6.07;;
5549;SDS011;2798;42.716;23.256;2023-04-06T10:47:43;7.07;;;6.30;;
5549;SDS011;2798;42.716;23.256;2023-04-06T10:50:10;6.93;;;5.53;;
5549;SDS011;2798;42.716;23.256;2023-04-06T10:52:37;8.70;;;5.67;;
5549;SDS011;2798;42.716;23.256;2023-04-06T10:55:02;7.90;;;5.63;;
5549;SDS011;2798;42.716;23.256;2023-04-06T10:57:28;8.10;;;5.57;;
5549;SDS011;2798;42.716;23.256;2023-04-06T10:59:54;6.27;;;5.67;;
5549;SDS011;2798;42.716;23.256;2023-04-06T11:02:19;8.70;;;5.70;;
5549;SDS011;2798;42.716;23.256;2023-04-06T11:04:53;9.30;;;5.97;;
5549;SDS011;2798;42.716;23.256;2023-04-06T11:07:22;6.23;;;4.87;;
5549;SDS011;2798;42.716;23.256;2023-04-06T11:09:49;6.40;;;5.20;;
5549;SDS011;2798;42.716;23.256;2023-04-06T11:12:51;6.60;;;5.17;;
5549;SDS011;2798;42.716;23.256;2023-04-06T11:15:06;6.80;;;5.37;;
5549;SDS011;2798;42.716;23.256;2023-04-06T11:17:33;6.70;;;5.83;;
5549;SDS011;2798;42.716;23.256;2023-04-06T11:19:59;5.80;;;4.90;;
5549;SDS011;2798;42.716;23.256;2023-04-06T11:22:25;6.27;;;4.70;;
5549;SDS011;2798;42.716;23.256;2023-04-06T11:24:50;5.83;;;5.00;;
5549;SDS011;2798;42.716;23.256;2023-04-06T11:27:16;6.13;;;4.60;;
5549;SDS011;2798;42.716;23.256;2023-04-06T11:29:42;5.20;;;4.33;;
5549;SDS011;2798;42.716;23.256;2023-04-06T11:32:07;7.30;;;4.63;;
5549;SDS011;2798;42.716;23.256;2023-04-06T11:34:34;6.57;;;4.90;;
5549;SDS011;2798;42.716;23.256;2023-04-06T11:37:04;6.87;;;5.50;;
5549;SDS011;2798;42.716;23.256;2023-04-06T11:39:32;5.73;;;4.70;;
5549;SDS011;2798;42.716;23.256;2023-04-06T11:42:00;4.97;;;4.57;;
5549;SDS011;2798;42.716;23.256;2023-04-06T11:44:37;5.50;;;4.50;;
5549;SDS011;2798;42.716;23.256;2023-04-06T11:47:04;6.03;;;4.43;;
5549;SDS011;2798;42.716;23.256;2023-04-06T11:49:30;7.73;;;5.77;;
5549;SDS011;2798;42.716;23.256;2023-04-06T11:51:56;5.80;;;4.83;;
5549;SDS011;2798;42.716;23.256;2023-04-06T11:54:32;8.43;;;4.57;;
5549;SDS011;2798;42.716;23.256;2023-04-06T11:56:57;6.47;;;4.80;;
5549;SDS011;2798;42.716;23.256;2023-04-06T11:59:23;5.73;;;5.20;;
5549;SDS011;2798;42.716;23.256;2023-04-06T12:01:48;5.80;;;4.70;;
5549;SDS011;2798;42.716;23.256;2023-04-06T12:04:13;9.33;;;4.60;;
5549;SDS011;2798;42.716;23.256;2023-04-06T12:06:39;5.60;;;5.10;;
5549;SDS011;2798;42.716;23.256;2023-04-06T12:09:05;5.90;;;4.63;;
5549;SDS011;2798;42.716;23.256;2023-04-06T12:11:30;6.50;;;4.97;;
5549;SDS011;2798;42.716;23.256;2023-04-06T12:13:55;8.10;;;5.10;;
5549;SDS011;2798;42.716;23.256;2023-04-06T12:16:20;7.37;;;4.87;;
5549;SDS011;2798;42.716;23.256;2023-04-06T12:18:46;6.47;;;5.20;;
5549;SDS011;2798;42.716;23.256;2023-04-06T12:21:11;6.27;;;5.20;;
5549;SDS011;2798;42.716;23.256;2023-04-06T12:23:36;5.97;;;4.90;;
5549;SDS011;2798;42.716;23.256;2023-04-06T12:26:02;4.83;;;4.13;;
5549;SDS011;2798;42.716;23.256;2023-04-06T12:28:27;7.23;;;5.23;;
5549;SDS011;2798;42.716;23.256;2023-04-06T12:30:53;7.10;;;4.50;;
5549;SDS011;2798;42.716;23.256;2023-04-06T12:33:19;5.33;;;4.33;;
5549;SDS011;2798;42.716;23.256;2023-04-06T12:35:44;5.57;;;4.70;;
5549;SDS011;2798;42.716;23.256;2023-04-06T12:38:10;7.27;;;4.33;;
5549;SDS011;2798;42.716;23.256;2023-04-06T12:40:38;6.83;;;4.90;;
5549;SDS011;2798;42.716;23.256;2023-04-06T12:43:04;8.67;;;5.20;;
5549;SDS011;2798;42.716;23.256;2023-04-06T12:45:30;5.90;;;5.00;;
5549;SDS011;2798;42.716;23.256;2023-04-06T12:47:55;5.60;;;5.10;;
5549;SDS011;2798;42.716;23.256;2023-04-06T12:50:21;5.87;;;5.27;;
5549;SDS011;2798;42.716;23.256;2023-04-06T12:52:46;5.60;;;4.93;;
5549;SDS011;2798;42.716;23.256;2023-04-06T12:55:12;7.20;;;5.20;;
5549;SDS011;2798;42.716;23.256;2023-04-06T12:57:37;5.30;;;4.80;;
5549;SDS011;2798;42.716;23.256;2023-04-06T13:00:03;6.07;;;5.10;;
5549;SDS011;2798;42.716;23.256;2023-04-06T13:02:29;6.73;;;4.70;;
5549;SDS011;2798;42.716;23.256;2023-04-06T13:04:54;7.23;;;4.80;;
5549;SDS011;2798;42.716;23.256;2023-04-06T13:07:20;5.30;;;4.60;;
5549;SDS011;2798;42.716;23.256;2023-04-06T13:09:45;8.60;;;5.30;;
5549;SDS011;2798;42.716;23.256;2023-04-06T13:12:12;6.67;;;4.93;;
5549;SDS011;2798;42.716;23.256;2023-04-06T13:14:37;6.80;;;4.90;;
5549;SDS011;2798;42.716;23.256;2023-04-06T13:17:04;6.57;;;5.37;;
5549;SDS011;2798;42.716;23.256;2023-04-06T13:19:29;6.70;;;5.40;;
5549;SDS011;2798;42.716;23.256;2023-04-06T13:21:56;6.40;;;4.93;;
5549;SDS011;2798;42.716;23.256;2023-04-06T13:24:21;6.10;;;4.80;;
5549;SDS011;2798;42.716;23.256;2023-04-06T13:26:48;5.23;;;4.40;;
5549;SDS011;2798;42.716;23.256;2023-04-06T13:29:13;5.87;;;4.77;;
5549;SDS011;2798;42.716;23.256;2023-04-06T13:31:38;5.00;;;4.57;;
5549;SDS011;2798;42.716;23.256;2023-04-06T13:34:04;5.60;;;4.57;;
5549;SDS011;2798;42.716;23.256;2023-04-06T13:36:29;5.43;;;4.80;;
5549;SDS011;2798;42.716;23.256;2023-04-06T13:38:56;6.13;;;4.90;;
5549;SDS011;2798;42.716;23.256;2023-04-06T13:41:22;5.13;;;4.27;;
5549;SDS011;2798;42.716;23.256;2023-04-06T13:43:48;6.17;;;5.13;;
5549;SDS011;2798;42.716;23.256;2023-04-06T13:46:13;6.50;;;4.30;;
5549;SDS011;2798;42.716;23.256;2023-04-06T13:48:38;5.30;;;4.70;;
5549;SDS011;2798;42.716;23.256;2023-04-06T13:51:10;6.43;;;4.90;;
5549;SDS011;2798;42.716;23.256;2023-04-06T13:53:35;5.20;;;4.70;;
5549;SDS011;2798;42.716;23.256;2023-04-06T13:56:01;5.37;;;4.47;;
5549;SDS011;2798;42.716;23.256;2023-04-06T13:58:26;6.63;;;4.50;;
5549;SDS011;2798;42.716;23.256;2023-04-06T14:00:51;4.77;;;4.37;;
5549;SDS011;2798;42.716;23.256;2023-04-06T14:03:17;4.80;;;4.40;;
5549;SDS011;2798;42.716;23.256;2023-04-06T14:05:44;5.83;;;4.77;;
5549;SDS011;2798;42.716;23.256;2023-04-06T14:08:10;7.70;;;5.00;;
5549;SDS011;2798;42.716;23.256;2023-04-06T14:10:39;5.83;;;4.43;;
5549;SDS011;2798;42.716;23.256;2023-04-06T14:13:05;5.30;;;4.10;;
5549;SDS011;2798;42.716;23.256;2023-04-06T14:15:30;4.60;;;4.20;;
5549;SDS011;2798;42.716;23.256;2023-04-06T14:17:55;4.90;;;4.40;;
5549;SDS011;2798;42.716;23.256;2023-04-06T14:20:21;5.93;;;4.30;;
5549;SDS011;2798;42.716;23.256;2023-04-06T14:22:46;7.00;;;4.60;;
5549;SDS011;2798;42.716;23.256;2023-04-06T14:25:13;5.47;;;4.63;;
5549;SDS011;2798;42.716;23.256;2023-04-06T14:27:41;6.43;;;5.27;;
5549;SDS011;2798;42.716;23.256;2023-04-06T14:30:07;5.87;;;4.60;;
5549;SDS011;2798;42.716;23.256;2023-04-06T14:32:33;6.73;;;5.20;;
5549;SDS011;2798;42.716;23.256;2023-04-06T14:34:58;6.10;;;4.87;;
5549;SDS011;2798;42.716;23.256;2023-04-06T14:37:23;8.07;;;4.97;;
5549;SDS011;2798;42.716;23.256;2023-04-06T14:39:48;5.47;;;4.67;;
5549;SDS011;2798;42.716;23.256;2023-04-06T14:42:14;5.77;;;5.17;;
5549;SDS011;2798;42.716;23.256;2023-04-06T14:44:39;6.90;;;5.30;;
5549;SDS011;2798;42.716;23.256;2023-04-06T14:47:08;5.43;;;4.93;;
5549;SDS011;2798;42.716;23.256;2023-04-06T14:49:33;7.13;;;5.33;;
5549;SDS011;2798;42.716;23.256;2023-04-06T14:51:59;7.00;;;5.30;;
5549;SDS011;2798;42.716;23.256;2023-04-06T14:54:24;8.60;;;5.50;;
5549;SDS011;2798;42.716;23.256;2023-04-06T14:56:50;7.27;;;5.43;;
5549;SDS011;2798;42.716;23.256;2023-04-06T14:59:15;7.07;;;5.50;;